Startpagina
METAR-TAF:

METAR-TAF

Vliegvelden :

Mar del Plata, Argentinië

Aeropuerto Internacional Astor Piazolla

breedte: 37-56S, lengte: 057-35W, hoogte: 18 m

Actueel weer

Dit bericht is 25 minuten geleden gemaakt, om 23:00 UTC
Wind 10 kt uit het noordoosten
Temperatuur 21°C
Vochtigheid 78%
Druk 1013 hPa
Zicht 10 km of meer
geen wolken onder 1500 m en geen cumulonimbus

METAR: SAZM 192300Z 05010KT CAVOK 21/17 Q1013

Tijdstip: 20:25 (23:25 UTC)

Verwachting

Dit bericht is 6 uur en het 25 minuten geleden gemaakt, om 17:00 UTC
Verwachting geldig van 19 om 18 UTC tot 20 om 18 UTC
Wind 10 kt uit het oostnoordoosten
Zicht 10 km of meer
geen wolken onder 1500 m en geen cumulonimbus
Wijzigt naar
van 20 om 15 UTC tot 20 om 18 UTC
Wind 15 kt uit het noordnoordoosten met uitschieters tot 25 kt

TAF: SAZM 191700Z 1918/2018 07010KT CAVOK TX28/2018Z TN17/2010Z BECMG 2015/2018 02015G25KT

Waarnemingen en weersverwachtingen van meer dan 4000 vliegvelden (METAR en TAF).

De beschikbare stations zijn de gele en rode punten op de kaart.

Ga met uw muis naar het station om de naam te zien.

Klik dan om waarnemingen en weersverwachtingen te zien.

kaart wijzigen: klik op de groene knoppen met een zwart kruis om in te zoomen, op de groene knop met een streepje om uit te zoomen of op de groene pijlen voor aangrenzende kaarten.


METAR-TAF: